Time;durP1;ratioP1;P1;durP2;ratioP2;P2;SDS_P1;SDS_P2;PMS_P1;PMS_P2;Temp;Humidity;BMP_temperature;BMP_pressure;BME280_temperature;BME280_humidity;BME280_pressure;Samples;Min_cycle;Max_cycle;Signal;HPM_P1;HPM_P2
2022/04/19 00:00:39;;;;;;;10.18;9.00;;;9.60;99.90;;;;;;4919605;29;20048;-78
2022/04/19 00:03:05;;;;;;;11.60;9.45;;;9.30;99.90;;;;;;4920537;29;20055;-78
2022/04/19 00:05:33;;;;;;;11.32;9.45;;;9.30;99.90;;;;;;4917560;29;20139;-78
2022/04/19 00:08:00;;;;;;;11.45;9.98;;;9.20;99.90;;;;;;4904484;29;20056;-78
2022/04/19 00:10:28;;;;;;;12.32;10.30;;;9.20;99.90;;;;;;4926778;29;20047;-79
2022/04/19 00:12:55;;;;;;;11.77;10.20;;;9.10;99.90;;;;;;4891400;29;20086;-78
2022/04/19 00:15:22;;;;;;;12.32;9.63;;;9.10;99.90;;;;;;4903722;29;20497;-79
2022/04/19 00:17:48;;;;;;;10.93;9.63;;;9.00;99.90;;;;;;4934478;28;20087;-78
2022/04/19 00:20:14;;;;;;;10.95;9.85;;;8.90;99.90;;;;;;4919638;29;20548;-78
2022/04/19 00:22:40;;;;;;;10.85;9.30;;;8.90;99.90;;;;;;4922079;29;20677;-78
2022/04/19 00:25:07;;;;;;;11.13;9.90;;;8.80;99.90;;;;;;4919465;29;20104;-78
2022/04/19 00:27:34;;;;;;;12.30;10.02;;;8.80;99.90;;;;;;4910890;29;20144;-78
2022/04/19 00:30:00;;;;;;;11.15;9.93;;;8.70;99.90;;;;;;4920395;29;20051;-78
2022/04/19 00:32:26;;;;;;;14.60;9.65;;;8.60;99.90;;;;;;4919900;29;20049;-78
2022/04/19 00:34:52;;;;;;;11.27;9.48;;;8.60;99.90;;;;;;4910955;29;20139;-79
2022/04/19 00:37:18;;;;;;;11.13;9.43;;;8.60;99.90;;;;;;4919956;29;20079;-79
2022/04/19 00:39:45;;;;;;;11.90;9.38;;;8.50;99.90;;;;;;4903157;29;20103;-78
2022/04/19 00:42:13;;;;;;;10.95;9.35;;;8.60;99.90;;;;;;4890370;29;20107;-78
2022/04/19 00:44:39;;;;;;;11.30;9.73;;;8.50;99.90;;;;;;4905289;29;20064;-78
2022/04/19 00:47:07;;;;;;;10.93;9.25;;;8.40;99.90;;;;;;4922043;29;20142;-79
2022/04/19 00:49:34;;;;;;;12.45;9.50;;;8.30;99.90;;;;;;4910354;29;20047;-78
2022/04/19 00:52:01;;;;;;;10.93;8.95;;;8.30;99.90;;;;;;4893404;29;20167;-79
2022/04/19 00:54:29;;;;;;;10.70;8.65;;;8.30;99.90;;;;;;4911858;29;20669;-78
2022/04/19 00:56:55;;;;;;;12.20;9.63;;;8.30;99.90;;;;;;4903920;29;20053;-78
2022/04/19 00:59:24;;;;;;;11.05;9.43;;;8.20;99.90;;;;;;4919515;29;20485;-78
2022/04/19 01:01:50;;;;;;;10.43;9.32;;;8.20;99.90;;;;;;4921370;29;20143;-78
2022/04/19 01:04:17;;;;;;;13.48;9.80;;;8.20;99.90;;;;;;4916856;29;20099;-78
2022/04/19 01:06:43;;;;;;;11.63;9.20;;;8.10;99.90;;;;;;4919149;29;20048;-78
2022/04/19 01:09:08;;;;;;;10.80;8.65;;;8.10;99.90;;;;;;4917908;29;20486;-78
2022/04/19 01:14:23;;;;;;;10.95;8.02;;;8.00;99.90;;;;;;4918942;29;20132;-78
2022/04/19 01:16:49;;;;;;;10.40;8.30;;;8.00;99.90;;;;;;4924008;29;20058;-78
2022/04/19 01:19:15;;;;;;;11.25;8.52;;;8.20;99.90;;;;;;4919425;29;20048;-77
2022/04/19 01:21:48;;;;;;;10.23;8.43;;;7.90;99.90;;;;;;4919517;29;20544;-77
2022/04/19 01:24:24;;;;;;;9.65;7.75;;;7.90;99.90;;;;;;4925967;29;20137;-78
2022/04/19 01:26:54;;;;;;;9.25;7.97;;;7.90;99.90;;;;;;4920116;29;20135;-78
2022/04/19 01:29:19;;;;;;;10.43;8.18;;;8.30;99.90;;;;;;4926907;29;20130;-77
2022/04/19 01:31:46;;;;;;;10.15;7.70;;;7.80;99.90;;;;;;4909601;29;20044;-78
2022/04/19 01:34:12;;;;;;;10.23;8.27;;;7.80;99.90;;;;;;4926019;29;20071;-77
2022/04/19 01:36:38;;;;;;;8.65;7.25;;;7.70;99.90;;;;;;4920576;29;20099;-77
2022/04/19 01:39:09;;;;;;;9.00;8.05;;;7.70;99.90;;;;;;4919500;29;20442;-78
2022/04/19 01:41:36;;;;;;;9.38;8.25;;;7.70;99.90;;;;;;4919074;29;20420;-79
2022/04/19 01:44:05;;;;;;;9.98;8.30;;;7.60;99.90;;;;;;4887633;29;20048;-79
2022/04/19 01:46:34;;;;;;;9.50;7.70;;;7.60;99.90;;;;;;4903937;29;20047;-76
2022/04/19 01:49:04;;;;;;;10.40;8.43;;;7.60;99.90;;;;;;4916673;29;20138;-76
2022/04/19 01:51:30;;;;;;;9.27;7.78;;;7.60;99.90;;;;;;4917965;29;20053;-77
2022/04/19 01:53:56;;;;;;;13.02;8.32;;;7.50;99.90;;;;;;4902927;29;20081;-77
2022/04/19 01:56:22;;;;;;;10.20;8.18;;;7.50;99.90;;;;;;4890751;29;20059;-77
2022/04/19 01:58:48;;;;;;;10.02;7.95;;;7.50;99.90;;;;;;4918543;29;20059;-77
2022/04/19 02:01:14;;;;;;;10.57;8.40;;;7.50;99.90;;;;;;4915650;29;20052;-77
2022/04/19 02:03:41;;;;;;;10.00;7.75;;;7.50;99.90;;;;;;4902411;29;20413;-77
2022/04/19 02:06:08;;;;;;;9.13;7.50;;;7.40;99.90;;;;;;4908678;29;20402;-77
2022/04/19 02:08:34;;;;;;;9.85;8.07;;;7.40;99.90;;;;;;4915020;29;20050;-77
2022/04/19 02:11:00;;;;;;;9.30;7.97;;;7.40;99.90;;;;;;4919341;29;20044;-77
2022/04/19 02:13:27;;;;;;;10.15;8.57;;;7.30;99.90;;;;;;4918305;29;20485;-77
2022/04/19 02:15:52;;;;;;;10.35;7.80;;;7.30;99.90;;;;;;4918437;29;20051;-77
2022/04/19 02:18:19;;;;;;;9.55;7.97;;;7.30;99.90;;;;;;4902235;29;20667;-77
2022/04/19 02:20:45;;;;;;;11.30;8.15;;;7.30;99.90;;;;;;4917732;29;20123;-77
2022/04/19 02:23:13;;;;;;;9.32;7.22;;;7.60;99.90;;;;;;4908079;29;20505;-77
2022/04/19 02:25:39;;;;;;;11.73;7.55;;;7.40;99.90;;;;;;4902204;29;20126;-77
2022/04/19 02:28:07;;;;;;;10.60;8.20;;;7.20;99.90;;;;;;4902290;29;20054;-77
2022/04/19 02:30:33;;;;;;;10.23;7.95;;;7.20;99.90;;;;;;4918000;29;20410;-77
2022/04/19 02:33:01;;;;;;;10.05;8.30;;;7.20;99.90;;;;;;4915098;29;20454;-77
2022/04/19 02:35:28;;;;;;;9.93;7.50;;;7.10;99.90;;;;;;4889597;29;20059;-78
2022/04/19 02:37:56;;;;;;;11.70;8.52;;;7.10;99.90;;;;;;4901745;29;20052;-77
2022/04/19 02:40:24;;;;;;;13.10;9.10;;;7.10;99.90;;;;;;4918017;29;20070;-78
2022/04/19 02:42:53;;;;;;;13.00;8.48;;;7.00;99.90;;;;;;4916620;29;20112;-77
2022/04/19 02:45:21;;;;;;;10.88;7.93;;;7.00;99.90;;;;;;4917423;29;20323;-78
2022/04/19 02:47:47;;;;;;;13.07;8.50;;;6.90;99.90;;;;;;4903109;29;20048;-77
2022/04/19 02:50:16;;;;;;;13.10;8.93;;;7.00;99.90;;;;;;4902019;29;20513;-77
2022/04/19 02:52:41;;;;;;;14.68;9.15;;;7.30;99.90;;;;;;4902514;29;21329;-77
2022/04/19 02:55:08;;;;;;;15.18;10.32;;;6.90;99.90;;;;;;4902031;29;20486;-77
2022/04/19 02:57:33;;;;;;;13.15;9.38;;;6.90;99.90;;;;;;4901852;29;20051;-77
2022/04/19 03:00:00;;;;;;;17.45;9.85;;;6.80;99.90;;;;;;4917477;29;20047;-77
2022/04/19 03:02:25;;;;;;;16.48;10.23;;;7.70;99.90;;;;;;4901777;29;20050;-77
2022/04/19 03:04:51;;;;;;;17.02;10.18;;;6.80;99.90;;;;;;4932627;28;20044;-78
2022/04/19 03:07:17;;;;;;;18.60;10.85;;;6.70;99.90;;;;;;4876565;29;20048;-78
2022/04/19 03:09:43;;;;;;;21.25;10.32;;;6.70;99.90;;;;;;4916650;29;20040;-78
2022/04/19 03:12:10;;;;;;;16.80;10.48;;;6.70;99.90;;;;;;4915761;29;20135;-78
2022/04/19 03:14:37;;;;;;;15.30;10.57;;;6.60;99.90;;;;;;4920155;29;20048;-78
2022/04/19 03:17:03;;;;;;;18.77;10.93;;;6.60;99.90;;;;;;4924504;29;20130;-78
2022/04/19 03:19:28;;;;;;;17.60;11.52;;;6.60;99.90;;;;;;4919866;29;20041;-77
2022/04/19 03:21:54;;;;;;;15.65;10.13;;;6.50;99.90;;;;;;4911221;29;20460;-77
2022/04/19 03:29:48;;;;;;;15.02;10.15;;;6.50;99.90;;;;;;4904847;29;20142;-77
2022/04/19 03:32:15;;;;;;;15.57;10.27;;;6.40;99.90;;;;;;4907260;29;20123;-78
2022/04/19 03:34:42;;;;;;;16.80;9.90;;;6.40;99.90;;;;;;4905780;29;20048;-78
2022/04/19 03:37:09;;;;;;;15.50;10.25;;;6.40;99.90;;;;;;4908371;29;20769;-79
2022/04/19 03:39:35;;;;;;;15.32;9.57;;;6.30;99.90;;;;;;4928155;29;20488;-78
2022/04/19 03:42:01;;;;;;;14.32;9.35;;;6.30;99.90;;;;;;4904900;29;20040;-78
2022/04/19 03:44:26;;;;;;;16.38;9.77;;;6.60;99.90;;;;;;4906065;29;20334;-78
2022/04/19 03:47:09;;;;;;;15.65;9.73;;;6.30;99.90;;;;;;4923121;29;20055;-78
2022/04/19 03:49:39;;;;;;;15.43;9.38;;;6.20;99.90;;;;;;4907844;29;20063;-78
2022/04/19 03:52:06;;;;;;;15.27;8.77;;;6.20;99.90;;;;;;4920426;29;20107;-80
2022/04/19 03:54:34;;;;;;;14.63;9.38;;;6.20;99.90;;;;;;4923248;29;20051;-78
2022/04/19 03:57:08;;;;;;;17.00;9.82;;;6.20;99.90;;;;;;4925466;29;20047;-79
2022/04/19 03:59:37;;;;;;;13.00;9.18;;;6.10;99.90;;;;;;4893622;29;20457;-78
2022/04/19 04:02:04;;;;;;;11.52;8.75;;;7.00;99.90;;;;;;4910848;29;20059;-78
2022/04/19 04:04:34;;;;;;;11.38;8.18;;;6.10;99.90;;;;;;4907495;29;20687;-78
2022/04/19 04:07:07;;;;;;;11.48;8.73;;;6.10;99.90;;;;;;4922569;29;20315;-78
2022/04/19 04:09:35;;;;;;;12.85;8.20;;;6.10;99.90;;;;;;4918394;29;20061;-78
2022/04/19 04:12:05;;;;;;;13.23;8.32;;;6.10;99.90;;;;;;4919903;29;20059;-78
2022/04/19 04:14:32;;;;;;;11.50;8.25;;;6.10;99.90;;;;;;4904549;29;20048;-79
2022/04/19 04:16:58;;;;;;;9.88;7.88;;;6.60;99.90;;;;;;4921639;29;20108;-78
2022/04/19 04:19:24;;;;;;;10.10;8.15;;;7.20;99.90;;;;;;4903609;29;20055;-79
2022/04/19 04:21:50;;;;;;;11.10;7.60;;;6.20;99.90;;;;;;4889926;29;20055;-78
2022/04/19 04:24:15;;;;;;;9.65;8.05;;;7.00;99.90;;;;;;4910403;29;20059;-77
2022/04/19 04:26:41;;;;;;;10.65;8.27;;;6.10;99.90;;;;;;4909645;29;20119;-78
2022/04/19 04:29:07;;;;;;;9.57;7.03;;;6.10;99.90;;;;;;4906404;29;20103;-78
2022/04/19 04:31:33;;;;;;;9.02;7.35;;;6.40;99.90;;;;;;4889801;29;20063;-77
2022/04/19 04:33:59;;;;;;;9.85;7.15;;;6.10;99.90;;;;;;4920429;29;20052;-78
2022/04/19 04:36:25;;;;;;;10.57;7.72;;;6.10;99.90;;;;;;4903522;29;20126;-79
2022/04/19 04:38:51;;;;;;;9.77;7.13;;;6.10;99.90;;;;;;4921323;29;20060;-78
2022/04/19 04:41:17;;;;;;;9.68;7.47;;;6.30;99.90;;;;;;4903974;29;20058;-78
2022/04/19 04:43:43;;;;;;;8.85;7.82;;;6.10;99.90;;;;;;4890613;29;20052;-78
2022/04/19 04:51:38;;;;;;;10.05;7.63;;;6.10;99.90;;;;;;4935104;28;20515;-78
2022/04/19 04:54:04;;;;;;;9.60;7.05;;;6.60;99.90;;;;;;4919670;29;20044;-78
2022/04/19 04:56:29;;;;;;;10.18;7.15;;;6.10;99.90;;;;;;4919856;29;20047;-79
2022/04/19 04:58:55;;;;;;;10.45;7.63;;;6.10;99.90;;;;;;4900995;29;20741;-78
2022/04/19 05:01:21;;;;;;;10.98;7.55;;;6.10;99.90;;;;;;4918576;29;20051;-79
2022/04/19 05:03:47;;;;;;;10.50;7.80;;;6.10;99.90;;;;;;4904349;29;20048;-78
2022/04/19 05:06:13;;;;;;;9.25;6.93;;;6.10;99.90;;;;;;4917977;29;20130;-78
2022/04/19 05:08:39;;;;;;;9.48;6.93;;;6.10;99.90;;;;;;4905523;29;20071;-78
2022/04/19 05:11:04;;;;;;;10.18;7.18;;;6.20;99.90;;;;;;4903407;29;20040;-79
2022/04/19 05:13:30;;;;;;;9.85;7.22;;;6.80;99.90;;;;;;4900487;29;20469;-78
2022/04/19 05:15:58;;;;;;;9.50;6.78;;;6.50;99.90;;;;;;4921555;29;20052;-78
2022/04/19 05:18:25;;;;;;;9.30;7.18;;;6.20;99.90;;;;;;4918980;29;20055;-78
2022/04/19 05:20:51;;;;;;;10.85;6.78;;;6.20;99.90;;;;;;4919596;29;20505;-79
2022/04/19 05:23:16;;;;;;;10.38;7.75;;;6.20;99.90;;;;;;4932157;28;20072;-78
2022/04/19 05:25:42;;;;;;;9.02;6.80;;;6.30;99.90;;;;;;4919828;29;20071;-78
2022/04/19 05:28:08;;;;;;;11.93;7.45;;;6.30;99.90;;;;;;4909737;29;20063;-78
2022/04/19 05:30:34;;;;;;;8.15;6.57;;;6.30;99.90;;;;;;4904548;29;20052;-78
2022/04/19 05:32:59;;;;;;;12.43;7.50;;;6.40;99.90;;;;;;4919256;29;20058;-78
2022/04/19 05:35:26;;;;;;;7.95;6.55;;;6.40;99.90;;;;;;4902844;29;20058;-78
2022/04/19 05:37:52;;;;;;;9.65;7.10;;;6.40;99.90;;;;;;4893671;29;20052;-77
2022/04/19 05:40:18;;;;;;;9.07;7.63;;;6.40;99.90;;;;;;4904030;29;20088;-78
2022/04/19 05:42:44;;;;;;;10.15;7.50;;;7.40;99.90;;;;;;4902853;29;20121;-79
2022/04/19 05:45:09;;;;;;;9.32;7.30;;;6.50;99.90;;;;;;4919582;29;20070;-77
2022/04/19 05:47:35;;;;;;;9.90;7.43;;;6.60;99.90;;;;;;4902602;29;20127;-78
2022/04/19 05:50:01;;;;;;;9.20;7.22;;;6.70;99.90;;;;;;4893520;29;20054;-77
2022/04/19 05:52:27;;;;;;;11.52;7.63;;;6.70;99.90;;;;;;4907981;29;21213;-77
2022/04/19 05:54:52;;;;;;;9.77;7.40;;;6.80;99.90;;;;;;4909922;29;20062;-78
2022/04/19 05:57:18;;;;;;;9.20;7.45;;;6.90;99.90;;;;;;4903576;29;20106;-78
2022/04/19 05:59:44;;;;;;;10.50;8.23;;;7.00;99.90;;;;;;4916803;29;20048;-78
2022/04/19 06:04:53;;;;;;;10.27;7.00;;;7.20;99.90;;;;;;4916390;29;20051;-78
2022/04/19 06:07:20;;;;;;;10.32;8.00;;;7.30;99.90;;;;;;4885642;29;20048;-77
2022/04/19 06:09:46;;;;;;;11.50;7.82;;;7.50;99.90;;;;;;4906117;29;20051;-77
2022/04/19 06:12:12;;;;;;;10.48;7.75;;;7.60;99.90;;;;;;4899805;29;20637;-78
2022/04/19 06:14:38;;;;;;;10.60;7.68;;;7.70;99.90;;;;;;4904491;29;20055;-78
2022/04/19 06:17:04;;;;;;;9.40;7.22;;;7.90;99.90;;;;;;4909452;29;20123;-78
2022/04/19 06:19:30;;;;;;;10.52;7.80;;;8.00;99.90;;;;;;4918863;29;20164;-77
2022/04/19 06:21:57;;;;;;;12.05;7.85;;;8.10;99.90;;;;;;4917473;29;20099;-77
2022/04/19 06:24:24;;;;;;;10.57;7.47;;;8.30;99.90;;;;;;4916256;29;20055;-79
2022/04/19 06:26:50;;;;;;;11.50;7.45;;;8.40;99.90;;;;;;4905823;29;20055;-78
2022/04/19 06:29:16;;;;;;;10.23;8.10;;;8.60;99.90;;;;;;4921157;29;20493;-78
2022/04/19 06:31:43;;;;;;;10.43;7.82;;;8.80;99.90;;;;;;4915897;29;20493;-77
2022/04/19 06:34:10;;;;;;;11.02;7.40;;;8.90;99.90;;;;;;4915944;29;20114;-77
2022/04/19 06:36:35;;;;;;;10.52;7.32;;;9.10;99.90;;;;;;4902898;29;20133;-78
2022/04/19 06:39:01;;;;;;;10.55;7.90;;;9.20;99.90;;;;;;4914799;29;20511;-78
2022/04/19 06:41:27;;;;;;;9.02;7.32;;;9.50;99.90;;;;;;4913751;29;20169;-78
2022/04/19 06:43:57;;;;;;;9.63;7.07;;;9.60;99.90;;;;;;4898632;29;20056;-78
2022/04/19 06:46:25;;;;;;;12.40;7.85;;;9.80;99.90;;;;;;4901859;29;20211;-78
2022/04/19 06:48:53;;;;;;;12.65;7.70;;;10.00;99.90;;;;;;4901892;29;20067;-78
2022/04/19 06:51:21;;;;;;;9.25;7.05;;;10.20;99.90;;;;;;4913552;29;20047;-79
2022/04/19 06:53:46;;;;;;;8.90;7.18;;;10.40;99.90;;;;;;4918020;29;20062;-79
2022/04/19 06:56:12;;;;;;;8.82;7.13;;;10.60;99.90;;;;;;4901354;29;20052;-79
2022/04/19 06:58:41;;;;;;;10.32;7.57;;;10.80;99.90;;;;;;4914572;29;20121;-78
2022/04/19 07:01:07;;;;;;;10.93;7.40;;;11.00;99.90;;;;;;4912914;29;20126;-79
2022/04/19 07:03:33;;;;;;;9.35;6.80;;;11.20;99.90;;;;;;4887889;29;20051;-77
2022/04/19 07:06:03;;;;;;;10.55;7.60;;;11.40;99.90;;;;;;4904078;29;20127;-77
2022/04/19 07:08:29;;;;;;;13.60;7.70;;;11.70;99.90;;;;;;4917307;29;20121;-77
2022/04/19 07:10:56;;;;;;;9.85;7.15;;;11.90;99.90;;;;;;4907685;29;20075;-85
2022/04/19 07:13:23;;;;;;;8.60;6.97;;;12.10;99.90;;;;;;4932068;29;20078;-82
2022/04/19 07:15:49;;;;;;;9.80;7.72;;;12.30;99.90;;;;;;4912209;29;20112;-82
2022/04/19 07:18:17;;;;;;;8.77;6.97;;;12.50;99.90;;;;;;4924292;29;20423;-83
2022/04/19 07:28:57;;;;;;;9.27;7.32;;;13.30;99.90;;;;;;4903878;29;20052;-82
2022/04/19 07:31:22;;;;;;;12.65;7.07;;;13.80;99.90;;;;;;4916158;29;20040;-84
2022/04/19 07:33:48;;;;;;;10.25;7.50;;;14.10;99.90;;;;;;4901212;29;20055;-82
2022/04/19 07:36:14;;;;;;;8.80;6.88;;;14.30;99.90;;;;;;4887715;29;20048;-82
2022/04/19 07:38:40;;;;;;;9.68;7.10;;;14.50;99.90;;;;;;4902679;29;20368;-82
2022/04/19 07:41:07;;;;;;;9.35;7.03;;;14.70;99.90;;;;;;4888471;29;20500;-84
2022/04/19 07:43:33;;;;;;;8.60;7.18;;;15.00;99.90;;;;;;4920631;29;20154;-84
2022/04/19 07:45:58;;;;;;;11.40;7.40;;;15.20;99.90;;;;;;4877207;29;20568;-84
2022/04/19 07:48:24;;;;;;;8.27;7.07;;;15.50;99.90;;;;;;4901935;29;20060;-84
2022/04/19 07:50:51;;;;;;;8.35;7.45;;;15.70;99.90;;;;;;4910817;29;20048;-84
2022/04/19 07:53:17;;;;;;;10.90;7.18;;;16.00;99.90;;;;;;4914840;29;20497;-84
2022/04/19 07:55:43;;;;;;;10.05;6.78;;;16.20;99.90;;;;;;4890935;29;20438;-83
2022/04/19 07:58:09;;;;;;;9.27;6.72;;;16.20;99.90;;;;;;4889137;29;20434;-84
2022/04/19 08:00:34;;;;;;;9.23;6.70;;;16.60;99.90;;;;;;4918311;29;20047;-84
2022/04/19 08:03:00;;;;;;;8.23;6.18;;;16.70;99.90;;;;;;4909773;29;20048;-83
2022/04/19 08:05:26;;;;;;;8.57;6.90;;;16.90;99.90;;;;;;4916288;29;20048;-83
2022/04/19 08:07:52;;;;;;;9.07;6.97;;;17.10;99.90;;;;;;4906465;29;20079;-83
2022/04/19 08:10:19;;;;;;;7.88;6.75;;;17.30;99.90;;;;;;4889271;29;20103;-88
2022/04/19 08:12:45;;;;;;;6.70;6.00;;;17.50;99.90;;;;;;4906175;29;20128;-89
2022/04/19 08:15:13;;;;;;;8.57;6.53;;;17.30;99.90;;;;;;4906329;29;20408;-83
2022/04/19 08:17:39;;;;;;;6.88;6.18;;;17.80;99.90;;;;;;4921834;29;20055;-85
2022/04/19 08:20:06;;;;;;;7.25;5.63;;;18.00;99.90;;;;;;4912563;29;20035;-83
2022/04/19 08:22:32;;;;;;;7.25;5.55;;;18.20;99.90;;;;;;4921388;29;20064;-85
2022/04/19 08:24:57;;;;;;;7.03;5.70;;;18.40;99.90;;;;;;4905497;29;20590;-83
2022/04/19 08:27:23;;;;;;;7.30;5.20;;;18.60;99.40;;;;;;4922478;29;20062;-85
2022/04/19 08:29:50;;;;;;;8.18;5.50;;;18.70;98.90;;;;;;4920905;29;20051;-83
2022/04/19 08:32:16;;;;;;;8.38;5.30;;;18.90;98.50;;;;;;4891774;29;20050;-84
2022/04/19 08:34:42;;;;;;;8.40;5.88;;;19.10;98.40;;;;;;4921742;29;20075;-86
2022/04/19 08:37:09;;;;;;;6.25;5.18;;;19.20;97.80;;;;;;4921241;29;20059;-83
2022/04/19 08:39:36;;;;;;;7.53;6.10;;;19.40;97.90;;;;;;4890583;29;20051;-83
2022/04/19 08:42:02;;;;;;;7.88;5.70;;;19.60;97.40;;;;;;4910104;29;20082;-84
2022/04/19 08:44:28;;;;;;;8.85;6.05;;;19.80;96.80;;;;;;4903314;29;20060;-84
2022/04/19 08:46:55;;;;;;;6.95;5.93;;;19.90;96.10;;;;;;4906512;29;20047;-86
2022/04/19 08:49:22;;;;;;;7.60;5.65;;;20.00;95.50;;;;;;4919666;29;20131;-85
2022/04/19 08:51:48;;;;;;;8.68;6.80;;;20.20;95.20;;;;;;4911112;29;20035;-84
2022/04/19 08:59:42;;;;;;;6.57;5.53;;;20.70;94.00;;;;;;4908990;29;20059;-86
2022/04/19 09:02:23;;;;;;;8.65;5.95;;;20.80;93.50;;;;;;4903886;29;20400;-84
2022/04/19 09:04:50;;;;;;;6.70;6.00;;;21.00;92.40;;;;;;4920736;29;20059;-85
2022/04/19 09:07:16;;;;;;;7.38;5.60;;;21.30;92.70;;;;;;4907587;29;20048;-86
2022/04/19 09:09:43;;;;;;;9.88;5.72;;;21.50;91.70;;;;;;4905722;29;20575;-83
2022/04/19 09:12:11;;;;;;;8.02;6.03;;;21.60;90.80;;;;;;4919996;29;20051;-85
2022/04/19 09:14:59;;;;;;;7.57;5.00;;;21.80;90.00;;;;;;4921262;29;20043;-85
2022/04/19 09:17:34;;;;;;;6.80;5.50;;;22.10;84.20;;;;;;4905429;29;20111;-86
2022/04/19 09:20:19;;;;;;;6.72;5.57;;;21.90;82.80;;;;;;4909580;29;20156;-85
2022/04/19 09:22:48;;;;;;;;;;;22.10;81.90;;;;;;4905703;29;20123;-85
2022/04/19 09:25:25;;;;;;;6.60;5.22;;;22.00;78.90;;;;;;4908845;29;19926;-86
2022/04/19 09:27:53;;;;;;;7.30;5.00;;;22.10;79.10;;;;;;4905853;29;20055;-84
2022/04/19 09:30:32;;;;;;;7.90;4.88;;;21.70;80.10;;;;;;4916697;29;20102;-84
2022/04/19 09:33:02;;;;;;;7.93;4.88;;;22.30;77.40;;;;;;4917643;29;20098;-83
2022/04/19 09:35:48;;;;;;;5.93;4.38;;;22.30;78.20;;;;;;4903672;29;20059;-86
2022/04/19 09:38:14;;;;;;;7.88;4.30;;;22.30;73.30;;;;;;4903698;29;20052;-84
2022/04/19 09:40:43;;;;;;;5.60;4.03;;;22.30;77.30;;;;;;4906213;29;20195;-85
2022/04/19 09:43:22;;;;;;;5.10;3.70;;;22.40;76.50;;;;;;4924690;29;20059;-84
2022/04/19 09:45:58;;;;;;;5.93;4.15;;;22.60;76.90;;;;;;4906711;29;20512;-84
2022/04/19 09:48:37;;;;;;;6.78;3.63;;;22.60;74.30;;;;;;4922699;29;20055;-84
2022/04/19 09:51:13;;;;;;;6.55;3.92;;;22.60;70.70;;;;;;4894319;29;20044;-89
2022/04/19 09:53:46;;;;;;;4.97;3.28;;;22.60;73.00;;;;;;4906390;29;20130;-83
2022/04/19 09:56:14;;;;;;;6.53;3.28;;;22.60;70.40;;;;;;4908694;29;20056;-84
2022/04/19 09:58:50;;;;;;;8.05;3.58;;;22.70;72.50;;;;;;4922963;29;20048;-85
2022/04/19 10:09:37;;;;;;;5.55;3.53;;;23.60;67.70;;;;;;4922269;29;19923;-84
2022/04/19 10:12:10;;;;;;;5.65;3.80;;;23.20;68.90;;;;;;4911547;29;20059;-85
2022/04/19 10:14:36;;;;;;;5.15;3.65;;;23.70;67.30;;;;;;4931906;29;20061;-82
2022/04/19 10:17:05;;;;;;;6.28;3.55;;;24.00;67.50;;;;;;4927408;29;20170;-83
2022/04/19 10:19:32;;;;;;;6.47;3.83;;;24.00;65.70;;;;;;4938783;29;20115;-85
2022/04/19 10:22:05;;;;;;;7.00;3.67;;;24.20;65.30;;;;;;4902787;29;20051;-83
2022/04/19 10:24:58;;;;;;;4.38;3.55;;;24.40;64.60;;;;;;4929954;29;20178;-85
2022/04/19 10:27:32;;;;;;;5.10;3.53;;;24.70;62.90;;;;;;4913996;29;20056;-84
2022/04/19 10:29:58;;;;;;;4.63;3.67;;;25.00;61.60;;;;;;4923490;29;20043;-84
2022/04/19 10:32:34;;;;;;;3.83;2.95;;;25.20;62.30;;;;;;4895623;29;20040;-82
2022/04/19 10:35:04;;;;;;;4.80;3.20;;;25.10;59.80;;;;;;4903087;29;20052;-83
2022/04/19 10:37:53;;;;;;;5.15;2.70;;;24.90;60.10;;;;;;4895703;29;20086;-82
2022/04/19 10:40:23;;;;;;;4.13;2.92;;;25.10;60.50;;;;;;4896481;29;20461;-82
2022/04/19 10:43:20;;;;;;;4.38;2.83;;;25.30;60.40;;;;;;4890619;29;20052;-82
2022/04/19 10:46:19;;;;;;;3.25;2.10;;;25.50;58.00;;;;;;4929811;28;20155;-85
2022/04/19 10:49:44;;;;;;;3.92;2.38;;;25.80;54.60;;;;;;4897338;29;20055;-85
2022/04/19 10:52:40;;;;;;;3.92;2.35;;;26.10;54.90;;;;;;4915052;29;20378;-83
2022/04/19 10:55:14;;;;;;;5.20;2.22;;;26.10;55.20;;;;;;4911311;29;20146;-80
2022/04/19 11:00:36;;;;;;;3.65;2.33;;;26.00;55.80;;;;;;4917619;29;20419;-82
2022/04/19 11:03:17;;;;;;;3.30;1.77;;;26.00;55.10;;;;;;4912572;29;20480;-81
2022/04/19 11:05:50;;;;;;;3.35;1.60;;;26.10;54.50;;;;;;4905214;29;20405;-82
2022/04/19 11:08:25;;;;;;;2.30;1.40;;;25.80;53.50;;;;;;4930442;28;20066;-82
2022/04/19 11:10:52;;;;;;;2.40;1.65;;;26.20;53.60;;;;;;4910914;29;20532;-82
2022/04/19 11:13:21;;;;;;;2.17;1.30;;;26.30;53.70;;;;;;4919014;29;21508;-77
2022/04/19 11:16:05;;;;;;;3.50;1.30;;;26.40;53.20;;;;;;4915518;29;20067;-77
2022/04/19 11:18:38;;;;;;;2.70;1.40;;;26.40;51.20;;;;;;4899380;29;20087;-78
2022/04/19 11:21:12;;;;;;;2.20;1.15;;;26.40;52.40;;;;;;4901023;29;20047;-80
2022/04/19 11:23:46;;;;;;;2.33;1.00;;;26.50;52.30;;;;;;4899494;29;20050;-78
2022/04/19 11:26:30;;;;;;;1.80;1.20;;;26.60;50.20;;;;;;4912982;29;20056;-78
2022/04/19 11:29:09;;;;;;;1.85;1.10;;;26.60;50.50;;;;;;4907883;29;20538;-78
2022/04/19 11:31:55;;;;;;;1.92;0.98;;;26.70;49.80;;;;;;4912763;29;20040;-76
2022/04/19 11:34:20;;;;;;;;;;;26.60;49.00;;;;;;4916525;29;20081;-78
2022/04/19 11:36:46;;;;;;;;;;;26.60;47.10;;;;;;4914911;29;19927;-78
2022/04/19 11:47:51;;;;;;;1.48;1.02;;;26.90;49.20;;;;;;4917245;29;20134;-78
2022/04/19 11:50:31;;;;;;;1.52;1.00;;;27.00;48.30;;;;;;4923579;29;20090;-79
2022/04/19 11:53:00;;;;;;;1.95;1.17;;;27.20;47.60;;;;;;4906792;29;20423;-78
2022/04/19 11:55:30;;;;;;;1.90;0.98;;;27.20;47.20;;;;;;4903298;29;20055;-78
2022/04/19 11:58:07;;;;;;;2.22;1.08;;;27.30;47.10;;;;;;4916652;29;20497;-78
2022/04/19 12:00:33;;;;;;;4.85;0.98;;;27.50;45.90;;;;;;4923934;29;20123;-78
2022/04/19 12:03:02;;;;;;;2.33;1.00;;;27.60;46.40;;;;;;4916250;29;20050;-78
2022/04/19 12:05:32;;;;;;;2.00;1.00;;;27.60;45.80;;;;;;4900164;29;20048;-78
2022/04/19 12:07:57;;;;;;;1.95;1.23;;;27.80;46.00;;;;;;4915202;29;20043;-78
2022/04/19 12:10:24;;;;;;;2.03;1.10;;;27.80;46.00;;;;;;4900793;29;20059;-80
2022/04/19 12:12:50;;;;;;;1.92;1.10;;;27.80;45.90;;;;;;4916686;29;20055;-79
2022/04/19 12:15:39;;;;;;;1.75;1.10;;;27.90;45.90;;;;;;4919985;29;20043;-79
2022/04/19 12:18:05;;;;;;;2.00;1.00;;;27.70;43.10;;;;;;4906161;29;20056;-77
2022/04/19 12:20:44;;;;;;;1.70;1.00;;;27.80;45.70;;;;;;4924988;29;20130;-77
2022/04/19 12:23:20;;;;;;;4.90;1.80;;;27.80;43.60;;;;;;4929403;29;20067;-77
2022/04/19 12:26:04;;;;;;;2.22;1.55;;;27.80;44.50;;;;;;4916456;29;20052;-78
2022/04/19 12:28:48;;;;;;;2.85;1.40;;;27.90;44.60;;;;;;4921951;29;20562;-77
2022/04/19 12:31:34;;;;;;;3.88;1.33;;;27.90;43.60;;;;;;4921416;29;20043;-77
2022/04/19 12:34:02;;;;;;;2.88;1.10;;;27.90;43.70;;;;;;4922942;29;20636;-77
2022/04/19 12:36:28;;;;;;;2.83;1.27;;;27.80;44.60;;;;;;4938138;28;20059;-77
2022/04/19 12:38:59;;;;;;;1.33;0.88;;;27.80;44.60;;;;;;4927316;29;20051;-78
2022/04/19 12:42:03;;;;;;;1.65;1.00;;;27.70;44.40;;;;;;4897870;29;20048;-78
2022/04/19 12:44:29;;;;;;;2.10;1.30;;;27.70;44.30;;;;;;4911546;29;20099;-80
2022/04/19 12:46:55;;;;;;;2.90;1.23;;;27.80;44.60;;;;;;4915562;29;20075;-77
2022/04/19 12:49:31;;;;;;;2.55;1.30;;;27.90;44.60;;;;;;4932562;28;20048;-78
2022/04/19 12:52:07;;;;;;;2.30;1.17;;;28.10;44.80;;;;;;4924330;29;20186;-78
2022/04/19 12:54:41;;;;;;;4.22;0.98;;;28.00;43.30;;;;;;4902638;29;20052;-78
2022/04/19 12:57:23;;;;;;;2.35;1.17;;;28.20;45.00;;;;;;4906569;29;20099;-78
2022/04/19 12:59:50;;;;;;;2.05;1.30;;;28.20;44.10;;;;;;4905852;29;20062;-78
2022/04/19 13:02:18;;;;;;;2.30;1.25;;;28.10;44.60;;;;;;4918520;29;21814;-78
2022/04/19 13:04:45;;;;;;;3.65;1.50;;;28.10;44.40;;;;;;4918483;29;20512;-78
2022/04/19 13:12:40;;;;;;;2.95;1.40;;;28.10;44.90;;;;;;4919816;29;20048;-78
2022/04/19 13:15:07;;;;;;;2.85;1.20;;;28.00;44.50;;;;;;4922390;29;20052;-77
2022/04/19 13:17:39;;;;;;;2.55;1.13;;;28.00;44.50;;;;;;4925142;29;20143;-78
2022/04/19 13:20:06;;;;;;;2.38;1.20;;;28.10;44.50;;;;;;4912362;29;21070;-76
2022/04/19 13:22:33;;;;;;;1.90;1.00;;;28.20;44.30;;;;;;4911932;29;20078;-77
2022/04/19 13:24:59;;;;;;;1.65;1.00;;;28.30;45.00;;;;;;4920874;29;20494;-78
2022/04/19 13:27:26;;;;;;;1.67;1.13;;;28.50;44.70;;;;;;4921048;29;20103;-78
2022/04/19 13:29:53;;;;;;;2.78;1.10;;;28.60;44.60;;;;;;4919270;29;20544;-77
2022/04/19 13:32:22;;;;;;;2.10;1.30;;;28.50;44.00;;;;;;4921898;29;20048;-78
2022/04/19 13:34:48;;;;;;;2.05;1.27;;;28.50;44.50;;;;;;4919403;29;20461;-78
2022/04/19 13:38:23;;;;;;;1.85;1.10;;;28.50;44.20;;;;;;4902835;29;20055;-77
2022/04/19 13:40:00;;;;;;;3.40;1.40;;;28.30;44.00;;;;;;4918238;29;20308;-77
2022/04/19 13:42:26;;;;;;;2.33;1.35;;;28.20;45.30;;;;;;4893031;29;20582;-79
2022/04/19 13:44:52;;;;;;;2.30;1.20;;;28.10;44.70;;;;;;4917943;29;20124;-78
2022/04/19 13:47:18;;;;;;;3.15;1.60;;;28.10;45.00;;;;;;4934264;28;20139;-78
2022/04/19 13:49:44;;;;;;;3.28;1.38;;;27.90;45.40;;;;;;4887442;29;20055;-78
2022/04/19 13:52:09;;;;;;;3.15;1.40;;;27.90;45.40;;;;;;4925578;29;20079;-78